createdAt,value
2022-09-27T00:01:12.898Z,12.95
2022-09-27T00:03:40.323Z,12.55
2022-09-27T00:06:08.120Z,11.88
2022-09-27T00:08:36.817Z,12.63
2022-09-27T00:11:14.935Z,12.45
2022-09-27T00:13:41.851Z,12.73
2022-09-27T00:16:10.540Z,13.15
2022-09-27T00:18:38.113Z,12.93
2022-09-27T00:21:11.826Z,12.98
2022-09-27T00:23:39.990Z,12.15
2022-09-27T00:26:08.904Z,13.20
2022-09-27T00:28:36.052Z,12.50
2022-09-27T00:31:03.899Z,13.05
2022-09-27T00:33:31.020Z,12.88
2022-09-27T00:36:06.108Z,12.07
2022-09-27T00:38:33.090Z,13.13
2022-09-27T00:41:00.102Z,12.55
2022-09-27T00:43:27.135Z,12.73
2022-09-27T00:45:59.399Z,13.32
2022-09-27T00:48:31.756Z,13.68
2022-09-27T00:51:05.496Z,14.20
2022-09-27T00:53:46.590Z,14.23
2022-09-27T00:56:22.426Z,15.07
2022-09-27T00:59:16.049Z,14.77
2022-09-27T01:01:44.009Z,14.75
2022-09-27T01:04:14.806Z,13.90
2022-09-27T01:06:41.764Z,16.02
2022-09-27T01:09:11.270Z,15.00
2022-09-27T01:11:56.065Z,15.38
2022-09-27T01:14:58.897Z,14.38
2022-09-27T01:18:01.870Z,15.68
2022-09-27T01:20:52.849Z,15.18
2022-09-27T01:24:01.276Z,14.57
2022-09-27T01:26:49.959Z,14.93
2022-09-27T01:30:19.382Z,15.23
2022-09-27T01:33:07.736Z,15.05
2022-09-27T01:35:44.064Z,14.20
2022-09-27T01:38:45.317Z,14.20
2022-09-27T01:41:43.383Z,14.13
2022-09-27T01:44:30.111Z,14.52
2022-09-27T01:47:03.909Z,15.05
2022-09-27T01:50:06.307Z,16.08
2022-09-27T01:52:55.025Z,13.57
2022-09-27T01:55:28.779Z,15.40
2022-09-27T01:58:25.020Z,14.93
2022-09-27T02:00:54.573Z,14.52
2022-09-27T02:03:27.806Z,15.65
2022-09-27T02:06:01.674Z,14.32
2022-09-27T02:08:53.559Z,14.50
2022-09-27T02:11:20.773Z,15.68
2022-09-27T02:13:59.025Z,14.35
2022-09-27T02:16:53.707Z,15.63
2022-09-27T02:19:40.438Z,13.43
2022-09-27T02:22:21.540Z,14.43
2022-09-27T02:24:59.217Z,14.15
2022-09-27T02:27:47.418Z,14.90
2022-09-27T02:30:16.437Z,13.88
2022-09-27T02:32:44.054Z,14.70
2022-09-27T02:35:20.933Z,14.52
2022-09-27T02:37:48.800Z,15.30
2022-09-27T02:40:17.005Z,15.10
2022-09-27T02:42:45.970Z,14.73
2022-09-27T02:45:15.959Z,15.45
2022-09-27T02:48:13.578Z,15.55
2022-09-27T02:51:17.771Z,15.32
2022-09-27T02:54:12.458Z,14.63
2022-09-27T02:57:13.475Z,15.68
2022-09-27T03:00:09.580Z,15.73
2022-09-27T03:03:00.823Z,16.15
2022-09-27T03:05:34.317Z,16.35
2022-09-27T03:08:01.566Z,15.98
2022-09-27T03:10:30.610Z,15.70
2022-09-27T03:13:00.760Z,17.70
2022-09-27T03:15:27.874Z,16.20
2022-09-27T03:17:57.448Z,17.00
2022-09-27T03:20:24.420Z,18.02
2022-09-27T03:22:51.326Z,19.10
2022-09-27T03:25:19.632Z,17.63
2022-09-27T03:27:46.597Z,18.10
2022-09-27T03:30:14.986Z,18.90
2022-09-27T03:32:45.939Z,19.17
2022-09-27T03:35:14.234Z,19.13
2022-09-27T03:37:41.541Z,19.33
2022-09-27T03:40:09.715Z,18.77
2022-09-27T03:42:36.718Z,19.20
2022-09-27T03:45:04.060Z,19.60
2022-09-27T03:47:30.954Z,19.40
2022-09-27T03:49:57.912Z,20.90
2022-09-27T03:52:24.897Z,21.02
2022-09-27T03:54:51.901Z,20.35
2022-09-27T03:57:18.869Z,20.90
2022-09-27T03:59:45.782Z,19.73
2022-09-27T04:02:12.775Z,21.42
2022-09-27T04:04:39.896Z,22.50
2022-09-27T04:07:06.886Z,22.75
2022-09-27T04:09:33.796Z,22.45
2022-09-27T04:12:00.987Z,22.83
2022-09-27T04:14:27.890Z,22.58
2022-09-27T04:16:54.919Z,21.90
2022-09-27T04:19:22.314Z,21.58
2022-09-27T04:21:49.260Z,22.15
2022-09-27T04:24:16.154Z,23.55
2022-09-27T04:26:43.106Z,23.33
2022-09-27T04:29:10.343Z,20.30
2022-09-27T04:31:38.006Z,23.67
2022-09-27T04:34:07.236Z,24.27
2022-09-27T04:36:34.646Z,24.25
2022-09-27T04:39:05.636Z,24.15
2022-09-27T04:41:33.100Z,25.08
2022-09-27T04:44:03.626Z,24.17
2022-09-27T04:46:31.687Z,23.27
2022-09-27T04:49:02.113Z,23.30
2022-09-27T04:51:29.311Z,24.08
2022-09-27T04:53:58.212Z,21.15
2022-09-27T04:56:25.470Z,23.45
2022-09-27T04:58:52.410Z,23.80
2022-09-27T05:01:19.466Z,22.75
2022-09-27T05:03:46.629Z,24.17
2022-09-27T05:06:13.614Z,22.95
2022-09-27T05:08:40.587Z,22.27
2022-09-27T05:11:07.536Z,23.40
2022-09-27T05:13:34.665Z,21.35
2022-09-27T05:16:04.320Z,23.95
2022-09-27T05:18:31.389Z,24.73
2022-09-27T05:20:59.213Z,24.95
2022-09-27T05:23:27.291Z,25.73
2022-09-27T05:25:56.516Z,23.52
2022-09-27T05:28:27.103Z,24.23
2022-09-27T05:30:54.115Z,24.42
2022-09-27T05:33:21.118Z,26.20
2022-09-27T05:35:56.188Z,24.80
2022-09-27T05:38:25.273Z,25.00
2022-09-27T05:40:52.438Z,26.60
2022-09-27T05:43:20.145Z,25.52
2022-09-27T05:45:47.516Z,24.73
2022-09-27T05:48:14.721Z,26.60
2022-09-27T05:50:41.878Z,26.23
2022-09-27T05:53:10.774Z,25.90
2022-09-27T05:55:37.970Z,25.83
2022-09-27T05:58:08.714Z,25.50
2022-09-27T06:00:35.927Z,27.40
2022-09-27T06:03:05.762Z,27.38
2022-09-27T06:05:37.580Z,26.27
2022-09-27T06:08:08.320Z,28.08
2022-09-27T06:10:35.979Z,29.00
2022-09-27T06:13:12.289Z,29.13
2022-09-27T06:15:43.196Z,28.42
2022-09-27T06:18:14.345Z,28.52
2022-09-27T06:20:43.048Z,28.90
2022-09-27T06:23:19.397Z,28.70
2022-09-27T06:25:47.305Z,28.13
2022-09-27T06:28:14.611Z,28.85
2022-09-27T06:30:45.146Z,27.83
2022-09-27T06:33:20.398Z,26.48
2022-09-27T06:35:49.412Z,27.35
2022-09-27T06:38:18.518Z,28.10
2022-09-27T06:40:46.194Z,27.77
2022-09-27T06:43:20.466Z,27.75
2022-09-27T06:45:47.993Z,30.05
2022-09-27T06:48:17.995Z,29.73
2022-09-27T06:50:47.914Z,27.95
2022-09-27T06:53:17.258Z,28.08
2022-09-27T06:55:44.337Z,29.63
2022-09-27T06:58:30.968Z,27.23
2022-09-27T07:00:58.891Z,28.25
2022-09-27T07:03:35.477Z,27.17
2022-09-27T07:06:07.033Z,25.55
2022-09-27T07:08:36.002Z,24.70
2022-09-27T07:11:08.136Z,23.63
2022-09-27T07:13:40.229Z,23.70
2022-09-27T07:16:07.755Z,20.30
2022-09-27T07:18:34.772Z,21.35
2022-09-27T07:21:01.869Z,20.30
2022-09-27T07:23:29.213Z,21.60
2022-09-27T07:25:56.250Z,19.88
2022-09-27T07:28:23.437Z,20.15
2022-09-27T07:30:54.940Z,18.23
2022-09-27T07:33:22.284Z,16.15
2022-09-27T07:35:49.390Z,17.52
2022-09-27T07:38:16.630Z,16.77
2022-09-27T07:40:44.270Z,17.15
2022-09-27T07:43:12.390Z,17.73
2022-09-27T07:45:40.001Z,18.10
2022-09-27T07:48:15.066Z,16.90
2022-09-27T07:50:42.352Z,16.45
2022-09-27T07:53:12.789Z,18.60
2022-09-27T07:55:40.822Z,18.65
2022-09-27T07:58:11.386Z,17.13
2022-09-27T08:00:40.970Z,18.73
2022-09-27T08:03:16.681Z,18.38
2022-09-27T08:05:47.276Z,19.05
2022-09-27T08:08:16.739Z,18.10
2022-09-27T08:10:46.695Z,17.75
2022-09-27T08:13:18.054Z,16.85
2022-09-27T08:15:45.006Z,18.35
2022-09-27T08:18:12.525Z,17.85
2022-09-27T08:20:40.220Z,18.52
2022-09-27T08:23:07.378Z,17.70
2022-09-27T08:25:34.712Z,17.63
2022-09-27T08:28:06.815Z,18.02
2022-09-27T08:30:33.835Z,17.75
2022-09-27T08:33:03.412Z,16.42
2022-09-27T08:35:34.065Z,16.17
2022-09-27T08:38:03.103Z,17.15
2022-09-27T08:41:09.466Z,18.38
2022-09-27T08:44:01.853Z,16.92
2022-09-27T08:46:37.629Z,17.20
2022-09-27T08:49:19.427Z,16.27
2022-09-27T08:51:50.770Z,14.82
2022-09-27T08:54:25.905Z,16.63
2022-09-27T08:57:07.199Z,16.80
2022-09-27T08:59:59.270Z,16.65
2022-09-27T09:02:27.356Z,14.73
2022-09-27T09:05:03.152Z,15.90
2022-09-27T09:08:08.507Z,16.02
2022-09-27T09:11:26.465Z,15.48
2022-09-27T09:14:25.428Z,16.13
2022-09-27T09:17:28.927Z,16.60
2022-09-27T09:20:33.094Z,17.00
2022-09-27T09:23:10.923Z,16.27
2022-09-27T09:26:27.210Z,16.13
2022-09-27T09:29:21.044Z,17.08
2022-09-27T09:32:18.898Z,17.60
2022-09-27T09:34:59.602Z,16.95
2022-09-27T09:37:49.796Z,17.20
2022-09-27T09:40:44.723Z,16.60
2022-09-27T09:43:25.828Z,16.27
2022-09-27T09:46:05.592Z,16.77
2022-09-27T09:49:02.937Z,16.02
2022-09-27T09:51:40.726Z,16.75
2022-09-27T09:54:20.828Z,16.90
2022-09-27T09:57:12.867Z,15.45
2022-09-27T09:59:48.145Z,15.63
2022-09-27T10:02:35.811Z,15.23
2022-09-27T10:05:07.915Z,16.63
2022-09-27T10:07:39.140Z,17.13
2022-09-27T10:10:10.959Z,16.52
2022-09-27T10:12:38.024Z,17.02
2022-09-27T10:15:06.257Z,16.75
2022-09-27T10:17:42.670Z,16.83
2022-09-27T10:20:47.113Z,15.70
2022-09-27T10:23:21.369Z,15.13
2022-09-27T10:25:58.893Z,16.02
2022-09-27T10:28:42.634Z,14.73
2022-09-27T10:31:14.352Z,15.85
2022-09-27T10:34:02.090Z,15.57
2022-09-27T10:36:35.711Z,15.38
2022-09-27T10:39:07.091Z,15.73
2022-09-27T10:41:42.085Z,15.80
2022-09-27T10:44:36.055Z,15.95
2022-09-27T10:47:16.542Z,15.45
2022-09-27T10:49:43.594Z,15.45
2022-09-27T10:52:24.665Z,16.30
2022-09-27T10:55:05.054Z,15.98
2022-09-27T10:57:32.532Z,15.65
2022-09-27T11:00:08.449Z,14.82
2022-09-27T11:02:37.869Z,15.38
2022-09-27T11:05:24.038Z,17.02
2022-09-27T11:07:57.486Z,16.30
2022-09-27T11:10:37.431Z,17.70
2022-09-27T11:13:16.294Z,17.98
2022-09-27T11:16:14.258Z,17.73
2022-09-27T11:19:00.449Z,20.85
2022-09-27T11:22:06.264Z,17.35
2022-09-27T11:24:38.555Z,18.02
2022-09-27T11:27:32.280Z,19.17
2022-09-27T11:30:19.509Z,18.52
2022-09-27T11:33:01.634Z,17.90
2022-09-27T11:35:51.862Z,18.90
2022-09-27T11:38:52.335Z,18.42
2022-09-27T11:41:58.355Z,18.27
2022-09-27T11:44:44.970Z,17.67
2022-09-27T11:47:57.304Z,16.88
2022-09-27T11:51:01.555Z,18.80
2022-09-27T11:53:50.041Z,18.13
2022-09-27T11:56:49.628Z,18.83
2022-09-27T11:59:56.820Z,18.58
2022-09-27T12:02:38.913Z,18.70
2022-09-27T12:05:43.571Z,18.48
2022-09-27T12:09:02.791Z,17.20
2022-09-27T12:11:46.630Z,18.35
2022-09-27T12:15:07.265Z,16.88
2022-09-27T12:17:40.060Z,17.83
2022-09-27T12:20:17.027Z,17.58
2022-09-27T12:23:20.379Z,18.15
2022-09-27T12:25:54.508Z,18.13
2022-09-27T12:29:05.717Z,17.13
2022-09-27T12:31:54.842Z,16.17
2022-09-27T12:34:49.288Z,15.93
2022-09-27T12:37:48.844Z,16.48
2022-09-27T12:40:30.907Z,17.27
2022-09-27T12:43:18.055Z,18.85
2022-09-27T12:46:18.989Z,16.30
2022-09-27T12:49:27.122Z,16.55
2022-09-27T12:52:08.169Z,15.80
2022-09-27T12:54:49.908Z,16.13
2022-09-27T12:57:35.202Z,14.05
2022-09-27T13:00:18.065Z,13.23
2022-09-27T13:03:18.748Z,13.93
2022-09-27T13:06:06.027Z,13.63
2022-09-27T13:08:54.193Z,14.95
2022-09-27T13:11:28.546Z,14.82
2022-09-27T13:14:01.616Z,13.27
2022-09-27T13:16:28.846Z,12.85
2022-09-27T13:19:05.770Z,13.07
2022-09-27T13:21:56.382Z,12.65
2022-09-27T13:24:40.707Z,13.13
2022-09-27T13:27:29.322Z,12.45
2022-09-27T13:30:08.524Z,11.70
2022-09-27T13:32:36.595Z,11.10
2022-09-27T13:35:23.225Z,10.95
2022-09-27T13:37:59.542Z,10.95
2022-09-27T13:40:36.451Z,10.63
2022-09-27T13:43:11.055Z,10.63
2022-09-27T13:45:59.577Z,10.68
2022-09-27T13:49:02.420Z,10.40
2022-09-27T13:51:49.453Z,10.40
2022-09-27T13:54:39.526Z,9.73
2022-09-27T13:57:47.727Z,9.68
2022-09-27T14:00:54.792Z,10.35
2022-09-27T14:03:42.595Z,10.75
2022-09-27T14:06:18.713Z,10.18
2022-09-27T14:08:57.776Z,9.70
2022-09-27T14:11:42.440Z,9.02
2022-09-27T14:14:19.335Z,9.52
2022-09-27T14:16:47.627Z,9.38
2022-09-27T14:19:24.285Z,9.20
2022-09-27T14:21:52.157Z,9.50
2022-09-27T14:24:33.601Z,9.70
2022-09-27T14:27:19.252Z,9.52
2022-09-27T14:30:01.831Z,9.23
2022-09-27T14:32:32.377Z,8.13
2022-09-27T14:35:32.238Z,9.60
2022-09-27T14:38:15.781Z,9.45
2022-09-27T14:41:03.614Z,9.35
2022-09-27T14:43:33.162Z,8.73
2022-09-27T14:46:07.087Z,10.57
2022-09-27T14:48:35.830Z,8.80
2022-09-27T14:51:20.709Z,8.05
2022-09-27T14:53:57.069Z,8.35
2022-09-27T14:56:44.381Z,8.52
2022-09-27T14:59:30.797Z,7.80
2022-09-27T15:02:01.277Z,9.20
2022-09-27T15:04:32.211Z,8.55
2022-09-27T15:07:01.813Z,8.65
2022-09-27T15:09:32.940Z,7.78
2022-09-27T15:12:02.464Z,8.05
2022-09-27T15:14:33.432Z,9.02
2022-09-27T15:17:05.654Z,8.55
2022-09-27T15:19:34.586Z,9.07
2022-09-27T15:22:33.200Z,8.77
2022-09-27T15:25:42.711Z,8.82
2022-09-27T15:28:12.273Z,8.82
2022-09-27T15:30:42.533Z,8.80
2022-09-27T15:33:28.858Z,8.30
2022-09-27T15:36:05.856Z,8.38
2022-09-27T15:38:46.281Z,8.70
2022-09-27T15:41:20.343Z,9.13
2022-09-27T15:43:52.655Z,9.00
2022-09-27T15:46:22.757Z,8.95
2022-09-27T15:49:22.851Z,8.82
2022-09-27T15:51:54.268Z,9.35
2022-09-27T15:54:23.819Z,9.35
2022-09-27T15:56:55.568Z,10.07
2022-09-27T15:59:28.792Z,9.70
2022-09-27T16:02:10.059Z,9.18
2022-09-27T16:04:36.984Z,8.98
2022-09-27T16:07:09.087Z,9.20
2022-09-27T16:09:36.767Z,9.63
2022-09-27T16:12:03.757Z,8.95
2022-09-27T16:14:30.691Z,9.95
2022-09-27T16:17:00.917Z,9.88
2022-09-27T16:19:27.875Z,9.50
2022-09-27T16:21:55.471Z,9.55
2022-09-27T16:24:23.869Z,8.43
2022-09-27T16:26:50.868Z,9.07
2022-09-27T16:29:17.957Z,9.27
2022-09-27T16:31:45.278Z,8.73
2022-09-27T16:34:13.350Z,8.65
2022-09-27T16:36:41.073Z,8.73
2022-09-27T16:39:12.836Z,9.13
2022-09-27T16:41:43.790Z,9.18
2022-09-27T16:44:14.044Z,8.30
2022-09-27T16:46:42.703Z,8.40
2022-09-27T16:49:29.706Z,8.68
2022-09-27T16:51:59.888Z,8.13
2022-09-27T16:54:30.789Z,8.48
2022-09-27T16:56:59.518Z,9.13
2022-09-27T16:59:27.286Z,9.45
2022-09-27T17:01:58.659Z,9.55
2022-09-27T17:04:27.897Z,8.63
2022-09-27T17:06:57.191Z,9.77
2022-09-27T17:09:25.125Z,10.27
2022-09-27T17:11:52.351Z,9.90
2022-09-27T17:14:19.673Z,9.40
2022-09-27T17:16:48.490Z,10.38
2022-09-27T17:19:18.649Z,9.20
2022-09-27T17:21:46.725Z,9.77
2022-09-27T17:24:14.098Z,9.48
2022-09-27T17:26:41.811Z,9.82
2022-09-27T17:29:12.201Z,10.32
2022-09-27T17:31:41.382Z,9.88
2022-09-27T17:34:14.156Z,10.35
2022-09-27T17:36:44.339Z,9.88
2022-09-27T17:39:17.481Z,10.75
2022-09-27T17:41:44.721Z,10.60
2022-09-27T17:44:15.366Z,10.45
2022-09-27T17:46:44.723Z,10.23
2022-09-27T17:49:32.404Z,11.35
2022-09-27T17:51:59.706Z,10.15
2022-09-27T17:54:28.320Z,10.88
2022-09-27T17:56:56.585Z,10.82
2022-09-27T17:59:23.830Z,10.73
2022-09-27T18:01:51.093Z,10.98
2022-09-27T18:04:20.027Z,11.07
2022-09-27T18:06:47.657Z,11.13
2022-09-27T18:09:17.368Z,11.75
2022-09-27T18:11:45.368Z,12.30
2022-09-27T18:14:12.592Z,12.60
2022-09-27T18:16:43.244Z,13.07
2022-09-27T18:19:17.311Z,12.75
2022-09-27T18:21:44.845Z,14.88
2022-09-27T18:24:14.478Z,13.05
2022-09-27T18:26:41.937Z,14.45
2022-09-27T18:29:16.771Z,13.02
2022-09-27T18:31:48.460Z,13.43
2022-09-27T18:34:19.641Z,12.75
2022-09-27T18:36:47.263Z,13.68
2022-09-27T18:39:20.173Z,13.43
2022-09-27T18:41:49.515Z,14.25
2022-09-27T18:44:18.949Z,13.40
2022-09-27T18:46:46.803Z,12.75
2022-09-27T18:49:15.481Z,13.00
2022-09-27T18:51:44.994Z,12.43
2022-09-27T18:54:19.374Z,12.73
2022-09-27T18:56:48.573Z,12.10
2022-09-27T18:59:17.346Z,12.32
2022-09-27T19:01:46.045Z,11.88
2022-09-27T19:04:21.487Z,11.82
2022-09-27T19:06:52.010Z,12.50
2022-09-27T19:09:19.129Z,12.00
2022-09-27T19:11:46.576Z,11.35
2022-09-27T19:14:20.401Z,10.27
2022-09-27T19:16:48.450Z,10.07
2022-09-27T19:19:20.295Z,11.10
2022-09-27T19:21:48.423Z,10.82
2022-09-27T19:24:16.015Z,10.15
2022-09-27T19:26:43.410Z,10.27
2022-09-27T19:29:11.640Z,10.48
2022-09-27T19:31:38.842Z,9.85
2022-09-27T19:34:05.919Z,9.10
2022-09-27T19:36:32.886Z,9.60
2022-09-27T19:39:01.307Z,9.27
2022-09-27T19:41:28.566Z,9.27
2022-09-27T19:43:56.985Z,9.20
2022-09-27T19:46:25.588Z,10.15
2022-09-27T19:48:53.621Z,9.63
2022-09-27T19:51:26.655Z,9.65
2022-09-27T19:53:54.929Z,8.80
2022-09-27T19:56:23.331Z,9.57
2022-09-27T19:58:51.030Z,9.07
2022-09-27T20:01:24.767Z,10.13
2022-09-27T20:03:55.290Z,11.32
2022-09-27T20:06:22.556Z,9.93
2022-09-27T20:08:50.691Z,9.55
2022-09-27T20:11:23.361Z,9.70
2022-09-27T20:13:53.035Z,8.63
2022-09-27T20:16:24.109Z,8.65
2022-09-27T20:18:54.334Z,9.55
2022-09-27T20:21:23.392Z,9.13
2022-09-27T20:23:52.468Z,9.60
2022-09-27T20:26:22.070Z,8.70
2022-09-27T20:28:52.473Z,8.95
2022-09-27T20:31:22.899Z,10.27
2022-09-27T20:33:50.961Z,15.77
2022-09-27T20:36:22.716Z,9.93
2022-09-27T20:38:55.220Z,10.05
2022-09-27T20:41:25.617Z,10.50
2022-09-27T20:43:58.361Z,11.32
2022-09-27T20:46:26.309Z,10.13
2022-09-27T20:48:59.220Z,9.63
2022-09-27T20:51:27.804Z,9.75
2022-09-27T20:53:55.229Z,9.55
2022-09-27T20:56:30.072Z,9.13
2022-09-27T20:58:58.697Z,9.52
2022-09-27T21:01:27.532Z,10.00
2022-09-27T21:04:05.098Z,9.65
2022-09-27T21:06:33.141Z,9.30
2022-09-27T21:09:04.181Z,9.02
2022-09-27T21:11:31.550Z,9.13
2022-09-27T21:13:58.476Z,9.20
2022-09-27T21:16:28.648Z,9.63
2022-09-27T21:18:56.881Z,9.13
2022-09-27T21:21:25.416Z,8.82
2022-09-27T21:24:01.405Z,10.75
2022-09-27T21:26:31.849Z,10.38
2022-09-27T21:29:01.620Z,8.80
2022-09-27T21:31:34.374Z,10.52
2022-09-27T21:34:04.035Z,10.48
2022-09-27T21:36:38.047Z,11.35
2022-09-27T21:39:09.605Z,10.35
2022-09-27T21:41:38.917Z,11.15
2022-09-27T21:44:07.217Z,10.55
2022-09-27T21:46:34.712Z,11.02
2022-09-27T21:49:02.414Z,10.90
2022-09-27T21:51:37.536Z,11.13
2022-09-27T21:54:08.382Z,10.95
2022-09-27T21:56:38.725Z,10.65
2022-09-27T21:59:07.600Z,10.27
2022-09-27T22:01:35.571Z,10.75
2022-09-27T22:04:06.577Z,10.30
2022-09-27T22:06:38.532Z,10.05
2022-09-27T22:09:11.838Z,9.90
2022-09-27T22:11:44.416Z,10.00
2022-09-27T22:14:12.520Z,11.27
2022-09-27T22:16:39.637Z,10.07
2022-09-27T22:19:06.859Z,9.73
2022-09-27T22:21:37.510Z,10.00
2022-09-27T22:24:13.948Z,10.13
2022-09-27T22:26:45.802Z,10.90
2022-09-27T22:29:13.126Z,12.05
2022-09-27T22:31:40.166Z,10.75
2022-09-27T22:34:16.181Z,11.60
2022-09-27T22:36:43.680Z,10.85
2022-09-27T22:39:10.972Z,11.32
2022-09-27T22:41:38.295Z,11.45
2022-09-27T22:44:05.301Z,10.02
2022-09-27T22:46:32.534Z,11.05
2022-09-27T22:48:59.531Z,10.80
2022-09-27T22:51:26.530Z,10.73
2022-09-27T22:53:53.468Z,11.38
2022-09-27T22:56:21.216Z,11.30
2022-09-27T22:58:49.255Z,11.70
2022-09-27T23:01:19.750Z,10.73
2022-09-27T23:03:49.578Z,10.93
2022-09-27T23:06:18.888Z,12.02
2022-09-27T23:08:47.439Z,11.38
2022-09-27T23:11:17.886Z,11.98
2022-09-27T23:13:45.563Z,10.85
2022-09-27T23:16:25.763Z,11.60
2022-09-27T23:18:54.563Z,12.43
2022-09-27T23:21:24.195Z,11.35
2022-09-27T23:23:52.978Z,11.70
2022-09-27T23:26:24.212Z,12.05
2022-09-27T23:29:00.059Z,11.98
2022-09-27T23:31:30.279Z,12.98
2022-09-27T23:33:59.279Z,13.68
2022-09-27T23:36:27.993Z,13.93
2022-09-27T23:39:00.328Z,13.63
2022-09-27T23:41:27.450Z,12.60
2022-09-27T23:43:55.630Z,13.32
2022-09-27T23:46:23.890Z,13.35
2022-09-27T23:48:50.909Z,13.85
2022-09-27T23:59:26.457Z,14.70
